Time;durP1;ratioP1;P1;durP2;ratioP2;P2;SDS_P1;SDS_P2;PMS_P1;PMS_P2;Temp;Humidity;BMP_temperature;BMP_pressure;BME280_temperature;BME280_humidity;BME280_pressure;Samples;Min_cycle;Max_cycle;Signal;HPM_P1;HPM_P2
2022/03/06 00:00:43;;;;;;;;;;;;;;;4.43;43.75;100996.86;1741835;80;20106;-88
2022/03/06 00:03:09;;;;;;;;;;;;;;;4.37;43.34;100998.55;1764364;80;20187;-86
2022/03/06 00:05:34;;;;;;;;;;;;;;;4.31;43.45;100996.66;1741263;80;21078;-94
2022/03/06 00:08:00;;;;;;;;;;;;;;;4.21;43.75;101006.03;1735818;80;20122;-84
2022/03/06 00:10:26;;;;;;;;;;;;;;;4.21;42.80;101002.11;1741808;80;20266;-92
2022/03/06 00:12:52;;;;;;;;;;;;;;;4.11;42.27;101003.59;1766663;80;20187;-90
2022/03/06 00:15:18;;;;;;;;;;;;;;;4.23;42.37;101005.45;1753700;80;20201;-91
2022/03/06 00:17:44;;;;;;;;;;;;;;;4.22;43.18;101011.61;1730755;80;20573;-88
2022/03/06 00:20:10;;;;;;;;;;;;;;;4.02;42.98;101010.20;1751043;80;20281;-90
2022/03/06 00:22:36;;;;;;;;;;;;;;;4.07;42.93;101015.16;1748954;80;20332;-93
2022/03/06 00:25:03;;;;;;;;;;;;;;;4.09;42.68;101004.98;1733655;80;20187;-94
2022/03/06 00:27:28;;;;;;;;;;;;;;;4.00;42.33;101011.25;1732275;80;20912;-89
2022/03/06 00:29:54;;;;;;;;;;;;;;;4.05;42.29;101015.73;1758129;80;21130;-85
2022/03/06 00:32:19;;;;;;;;;;;;;;;4.12;42.13;101007.89;1740478;80;20147;-89
2022/03/06 00:34:48;;;;;;;;;;;;;;;4.18;42.45;101006.66;1745341;80;20210;-92
2022/03/06 00:37:12;;;;;;;;;;;;;;;4.20;42.19;101004.34;1717889;80;20180;-95
2022/03/06 00:39:38;;;;;;;;;;;;;;;4.24;42.08;101008.45;1698918;83;21476;-88
2022/03/06 00:42:04;;;;;;;;;;;;;;;4.36;41.99;101006.02;1704054;83;20728;-92
2022/03/06 00:44:29;;;;;;;;;;;;;;;4.26;42.20;101008.36;1706798;83;20271;-87
2022/03/06 00:46:55;;;;;;;;;;;;;;;4.09;42.22;101004.16;1710745;80;20133;-84
2022/03/06 00:49:20;;;;;;;;;;;;;;;4.05;42.33;101002.66;1710317;80;20097;-84
2022/03/06 00:51:46;;;;;;;;;;;;;;;4.02;42.39;100998.92;1715838;82;20161;-87
2022/03/06 00:54:12;;;;;;;;;;;;;;;4.12;42.67;100999.58;1709416;83;21036;-88
2022/03/06 00:56:38;;;;;;;;;;;;;;;4.14;42.54;100995.56;1708566;82;20195;-90
2022/03/06 00:59:03;;;;;;;;;;;;;;;4.09;42.83;100995.84;1709919;83;20169;-86
2022/03/06 01:01:29;;;;;;;;;;;;;;;4.03;43.16;100995.39;1709529;82;20616;-89
2022/03/06 01:03:54;;;;;;;;;;;;;;;3.86;43.17;100989.39;1703088;83;20155;-91
2022/03/06 01:06:20;;;;;;;;;;;;;;;3.81;43.42;100991.45;1709312;82;21101;-87
2022/03/06 01:08:46;;;;;;;;;;;;;;;3.92;43.37;100991.63;1711199;84;20221;-85
2022/03/06 01:11:11;;;;;;;;;;;;;;;3.99;43.44;100991.27;1709084;80;20319;-85
2022/03/06 01:13:38;;;;;;;;;;;;;;;3.89;43.69;100991.81;1709953;83;20094;-85
2022/03/06 01:16:04;;;;;;;;;;;;;;;3.95;43.80;100986.22;1709966;82;20177;-84
2022/03/06 01:18:30;;;;;;;;;;;;;;;3.94;43.54;100981.92;1713447;82;21006;-83
2022/03/06 01:20:55;;;;;;;;;;;;;;;4.05;43.39;100985.19;1710884;82;20161;-85
2022/03/06 01:23:21;;;;;;;;;;;;;;;4.01;43.45;100978.94;1712724;82;20141;-84
2022/03/06 01:25:46;;;;;;;;;;;;;;;4.08;43.25;100980.25;1712506;82;20332;-91
2022/03/06 01:28:12;;;;;;;;;;;;;;;4.10;43.09;100977.07;1706761;83;20160;-88
2022/03/06 01:30:38;;;;;;;;;;;;;;;4.07;42.77;100972.03;1710160;82;21114;-85
2022/03/06 01:33:03;;;;;;;;;;;;;;;4.09;42.62;100976.72;1708110;82;20153;-86
2022/03/06 01:35:29;;;;;;;;;;;;;;;4.05;42.68;100973.43;1707413;83;20177;-87
2022/03/06 01:37:55;;;;;;;;;;;;;;;4.19;42.81;100972.58;1704564;83;20144;-88
2022/03/06 01:40:20;;;;;;;;;;;;;;;4.02;43.03;100975.40;1709036;81;20157;-89
2022/03/06 01:42:47;;;;;;;;;;;;;;;3.92;43.21;100971.20;1742402;80;21202;-89
2022/03/06 01:45:13;;;;;;;;;;;;;;;4.01;42.81;100973.70;1742264;80;20259;-90
2022/03/06 01:47:41;;;;;;;;;;;;;;;4.02;42.50;100962.33;1735720;80;20230;-89
2022/03/06 01:50:14;;;;;;;;;;;;;;;4.13;42.64;100975.13;1730551;80;20156;-87
2022/03/06 01:52:40;;;;;;;;;;;;;;;4.25;42.15;100969.59;1743989;80;20249;-87
2022/03/06 01:55:07;;;;;;;;;;;;;;;4.20;42.07;100974.27;1742914;81;21926;-86
2022/03/06 01:57:32;;;;;;;;;;;;;;;4.12;42.14;100961.67;1738615;80;20144;-85
2022/03/06 02:00:00;;;;;;;;;;;;;;;4.19;41.98;100969.97;1737869;80;20178;-85
2022/03/06 02:02:25;;;;;;;;;;;;;;;4.20;41.61;100968.22;1734764;80;20213;-87
2022/03/06 02:04:51;;;;;;;;;;;;;;;4.04;41.59;100971.77;1732785;81;20130;-89
2022/03/06 02:07:16;;;;;;;;;;;;;;;3.94;41.97;100963.63;1742189;80;21166;-86
2022/03/06 02:09:42;;;;;;;;;;;;;;;3.89;42.11;100960.94;1738699;81;20550;-86
2022/03/06 02:12:23;;;;;;;;;;;;;;;3.82;42.08;100958.31;1742009;81;20122;-87
2022/03/06 02:14:52;;;;;;;;;;;;;;;3.89;42.06;100961.77;1731551;81;20205;-88
2022/03/06 02:17:18;;;;;;;;;;;;;;;3.71;42.31;100968.10;1742677;81;20488;-86
2022/03/06 02:19:58;;;;;;;;;;;;;;;3.71;42.01;100961.57;1738656;81;21083;-87
2022/03/06 02:22:29;;;;;;;;;;;;;;;3.88;41.96;100957.47;1740063;81;20495;-87
2022/03/06 02:24:54;;;;;;;;;;;;;;;3.74;42.13;100951.80;1739753;81;20188;-87
2022/03/06 02:27:20;;;;;;;;;;;;;;;3.95;42.17;100957.48;1736697;81;20275;-86
2022/03/06 02:29:46;;;;;;;;;;;;;;;3.98;42.03;100952.98;1743885;81;20164;-86
2022/03/06 02:32:13;;;;;;;;;;;;;;;3.77;42.24;100953.36;1732806;81;21209;-86
2022/03/06 02:34:40;;;;;;;;;;;;;;;3.77;42.19;100952.06;1710139;81;20327;-89
2022/03/06 02:37:06;;;;;;;;;;;;;;;3.71;42.57;100951.98;1745041;81;20197;-86
2022/03/06 02:39:32;;;;;;;;;;;;;;;3.94;42.38;100953.17;1737556;80;20100;-86
2022/03/06 02:41:57;;;;;;;;;;;;;;;3.89;42.30;100951.80;1743820;80;20474;-84
2022/03/06 02:44:24;;;;;;;;;;;;;;;4.05;42.31;100943.85;1750771;80;21890;-86
2022/03/06 02:46:50;;;;;;;;;;;;;;;3.90;42.71;100949.09;1739654;81;20817;-87
2022/03/06 02:49:17;;;;;;;;;;;;;;;3.87;43.01;100940.12;1744181;80;20136;-86
2022/03/06 02:51:44;;;;;;;;;;;;;;;3.98;42.64;100943.84;1748194;81;20189;-87
2022/03/06 02:54:10;;;;;;;;;;;;;;;4.03;42.58;100948.34;1737114;80;20310;-87
2022/03/06 02:56:36;;;;;;;;;;;;;;;4.05;42.45;100945.98;1747712;80;21128;-87
2022/03/06 02:59:03;;;;;;;;;;;;;;;4.14;42.51;100943.28;1745948;81;20204;-87
2022/03/06 03:01:29;;;;;;;;;;;;;;;4.17;42.48;100937.86;1744937;81;20154;-86
2022/03/06 03:03:55;;;;;;;;;;;;;;;4.16;42.37;100940.09;1744580;81;20239;-87
2022/03/06 03:06:20;;;;;;;;;;;;;;;4.10;42.02;100939.17;1747936;81;20130;-86
2022/03/06 03:08:46;;;;;;;;;;;;;;;4.13;42.02;100933.75;1752647;81;21081;-86
2022/03/06 03:11:12;;;;;;;;;;;;;;;4.18;42.06;100934.33;1744447;80;20431;-86
2022/03/06 03:13:38;;;;;;;;;;;;;;;4.21;42.27;100939.36;1746657;80;20492;-87
2022/03/06 03:16:05;;;;;;;;;;;;;;;4.20;42.18;100937.67;1750557;80;20102;-87
2022/03/06 03:18:30;;;;;;;;;;;;;;;4.21;41.78;100939.36;1751151;81;20214;-88
2022/03/06 03:20:56;;;;;;;;;;;;;;;4.11;41.42;100948.70;1748614;81;22305;-87
2022/03/06 03:23:22;;;;;;;;;;;;;;;3.89;41.71;100938.25;1745356;81;20183;-87
2022/03/06 03:25:47;;;;;;;;;;;;;;;3.88;41.68;100945.71;1739017;81;20133;-87
2022/03/06 03:28:13;;;;;;;;;;;;;;;4.02;41.78;100942.73;1740540;81;20189;-88
2022/03/06 03:30:38;;;;;;;;;;;;;;;4.11;41.54;100940.86;1740323;80;20191;-85
2022/03/06 03:33:04;;;;;;;;;;;;;;;4.21;41.74;100938.50;1731529;80;21268;-88
2022/03/06 03:35:30;;;;;;;;;;;;;;;4.19;41.63;100945.14;1737981;81;20144;-87
2022/03/06 03:37:55;;;;;;;;;;;;;;;4.21;41.27;100939.36;1750470;81;20152;-87
2022/03/06 03:40:21;;;;;;;;;;;;;;;4.11;41.18;100940.86;1742148;81;20146;-88
2022/03/06 03:42:46;;;;;;;;;;;;;;;4.15;41.10;100942.36;1746268;81;20136;-88
2022/03/06 03:45:12;;;;;;;;;;;;;;;4.28;40.70;100939.81;1745871;80;20905;-88
2022/03/06 03:47:37;;;;;;;;;;;;;;;4.25;40.84;100940.83;1742756;81;20507;-87
2022/03/06 03:50:05;;;;;;;;;;;;;;;4.14;41.03;100948.52;1741958;81;20154;-87
2022/03/06 03:52:30;;;;;;;;;;;;;;;4.15;41.23;100944.97;1746311;80;20182;-87
2022/03/06 03:54:56;;;;;;;;;;;;;;;4.29;41.00;100944.95;1745851;80;20148;-87
2022/03/06 03:57:25;;;;;;;;;;;;;;;4.16;40.57;100944.02;1737587;80;21071;-86
2022/03/06 03:59:51;;;;;;;;;;;;;;;4.18;40.77;100946.09;1768767;80;20155;-86
2022/03/06 04:02:16;;;;;;;;;;;;;;;4.20;40.68;100943.38;1755890;80;20260;-85
2022/03/06 04:04:42;;;;;;;;;;;;;;;4.24;40.79;100950.08;1710180;81;20158;-86
2022/03/06 04:07:07;;;;;;;;;;;;;;;4.14;40.87;100948.52;1739963;82;20174;-88
2022/03/06 04:09:33;;;;;;;;;;;;;;;4.15;40.93;100952.81;1744968;81;21046;-84
2022/03/06 04:11:59;;;;;;;;;;;;;;;3.90;41.06;100950.39;1740538;81;21321;-86
2022/03/06 04:14:24;;;;;;;;;;;;;;;3.89;41.47;100950.48;1746100;80;20146;-87
2022/03/06 04:16:50;;;;;;;;;;;;;;;4.05;41.41;100955.61;1742330;80;20128;-87
2022/03/06 04:19:15;;;;;;;;;;;;;;;4.09;40.61;100958.42;1767535;79;20164;-87
2022/03/06 04:21:41;;;;;;;;;;;;;;;4.17;40.80;100953.55;1739081;80;21195;-87
2022/03/06 04:24:07;;;;;;;;;;;;;;;4.06;41.02;100955.99;1711003;82;20320;-87
2022/03/06 04:26:33;;;;;;;;;;;;;;;4.05;41.04;100953.83;1733520;82;20217;-86
2022/03/06 04:28:59;;;;;;;;;;;;;;;4.16;40.88;100954.47;1742879;81;20223;-86
2022/03/06 04:31:25;;;;;;;;;;;;;;;4.11;40.35;100950.84;1753720;80;20285;-86
2022/03/06 04:33:51;;;;;;;;;;;;;;;3.97;40.41;100960.48;1735885;82;21059;-86
2022/03/06 04:36:16;;;;;;;;;;;;;;;4.00;40.31;100961.59;1731889;80;20191;-85
2022/03/06 04:38:42;;;;;;;;;;;;;;;4.13;40.36;100970.34;1732157;82;20140;-86
2022/03/06 04:41:09;;;;;;;;;;;;;;;4.04;40.02;100957.84;1729548;80;20167;-85
2022/03/06 04:43:34;;;;;;;;;;;;;;;4.09;40.09;100958.42;1747053;80;20189;-86
2022/03/06 04:46:00;;;;;;;;;;;;;;;4.18;40.30;100959.16;1748656;80;21992;-87
2022/03/06 04:48:25;;;;;;;;;;;;;;;4.21;40.28;100957.67;1741154;80;20129;-85
2022/03/06 04:50:51;;;;;;;;;;;;;;;4.19;40.47;100952.98;1737091;80;20155;-85
2022/03/06 04:53:16;;;;;;;;;;;;;;;4.27;40.03;100956.42;1745762;80;20158;-86
2022/03/06 04:55:42;;;;;;;;;;;;;;;4.33;40.05;100957.83;1738281;80;20558;-85
2022/03/06 04:58:08;;;;;;;;;;;;;;;4.18;40.23;100957.86;1746640;80;21363;-85
2022/03/06 05:00:34;;;;;;;;;;;;;;;4.20;40.22;100951.22;1738972;80;20156;-86
2022/03/06 05:02:59;;;;;;;;;;;;;;;4.17;40.24;100950.94;1743224;80;20181;-86
2022/03/06 05:05:25;;;;;;;;;;;;;;;4.10;40.37;100962.25;1738987;80;20177;-85
2022/03/06 05:07:50;;;;;;;;;;;;;;;4.06;40.00;100954.69;1746846;80;20206;-86
2022/03/06 05:10:16;;;;;;;;;;;;;;;4.00;39.98;100953.76;1742610;80;21861;-86
2022/03/06 05:12:41;;;;;;;;;;;;;;;4.09;40.07;100953.19;1750672;80;20187;-86
2022/03/06 05:15:08;;;;;;;;;;;;;;;4.03;40.30;100950.95;1743377;80;20161;-86
2022/03/06 05:17:34;;;;;;;;;;;;;;;4.16;40.28;100958.39;1749949;80;20220;-85
2022/03/06 05:20:00;;;;;;;;;;;;;;;4.27;40.08;100949.44;1723516;80;20144;-86
2022/03/06 05:22:25;;;;;;;;;;;;;;;4.14;40.00;100947.20;1746051;80;21171;-84
2022/03/06 05:24:51;;;;;;;;;;;;;;;4.20;40.01;100948.13;1742109;80;21234;-87
2022/03/06 05:27:16;;;;;;;;;;;;;;;4.23;40.06;100950.55;1734348;80;20163;-87
2022/03/06 05:29:42;;;;;;;;;;;;;;;4.11;40.43;100957.38;1751022;80;20127;-85
2022/03/06 05:32:07;;;;;;;;;;;;;;;4.06;39.79;100959.92;1746954;80;20244;-87
2022/03/06 05:34:33;;;;;;;;;;;;;;;3.89;39.74;100956.55;1741396;80;21100;-85
2022/03/06 05:36:59;;;;;;;;;;;;;;;3.99;39.76;100948.14;1748803;80;21194;-86
2022/03/06 05:39:24;;;;;;;;;;;;;;;3.90;39.87;100954.31;1744183;80;20234;-85
2022/03/06 05:41:50;;;;;;;;;;;;;;;3.94;39.87;100944.51;1749161;80;20126;-87
2022/03/06 05:44:15;;;;;;;;;;;;;;;3.98;40.12;100947.77;1741375;80;20156;-86
2022/03/06 05:46:41;;;;;;;;;;;;;;;4.01;40.04;100944.96;1746611;80;21774;-87
2022/03/06 05:49:12;;;;;;;;;;;;;;;4.13;39.50;100944.20;1746808;81;20629;-86
2022/03/06 05:51:34;;;;;;;;;;;;;;;4.15;39.60;100948.89;1745739;81;20189;-88
2022/03/06 05:54:01;;;;;;;;;;;;;;;4.01;40.27;100948.88;1741539;80;20212;-87
2022/03/06 05:56:27;;;;;;;;;;;;;;;4.16;40.13;100941.41;1723185;81;20523;-87
2022/03/06 05:58:52;;;;;;;;;;;;;;;4.08;39.84;100950.20;1697514;83;22031;-88
2022/03/06 06:01:18;;;;;;;;;;;;;;;3.89;39.81;100952.63;1697909;83;20153;-87
2022/03/06 06:03:43;;;;;;;;;;;;;;;3.74;40.03;100949.63;1743215;80;20227;-87
2022/03/06 06:06:09;;;;;;;;;;;;;;;3.97;40.01;100944.80;1718139;81;20138;-87
2022/03/06 06:08:34;;;;;;;;;;;;;;;3.83;40.03;100942.55;1755234;80;20482;-87
2022/03/06 06:11:00;;;;;;;;;;;;;;;3.94;40.18;100934.88;1740318;80;21206;-88
2022/03/06 06:13:26;;;;;;;;;;;;;;;4.00;40.10;100943.30;1744596;80;20207;-87
2022/03/06 06:15:52;;;;;;;;;;;;;;;4.00;40.20;100935.46;1744497;81;20437;-85
2022/03/06 06:18:18;;;;;;;;;;;;;;;3.98;40.52;100938.61;1744458;81;21255;-86
2022/03/06 06:20:44;;;;;;;;;;;;;;;4.08;40.46;100939.74;1737801;81;20315;-85
2022/03/06 06:23:09;;;;;;;;;;;;;;;4.06;40.67;100937.70;1736346;80;21092;-86
2022/03/06 06:25:35;;;;;;;;;;;;;;;3.87;41.19;100936.21;1733130;81;20121;-86
2022/03/06 06:28:00;;;;;;;;;;;;;;;3.90;40.99;100937.77;1742318;81;20483;-88
2022/03/06 06:30:26;;;;;;;;;;;;;;;4.06;40.97;100931.16;1742283;81;20158;-87
2022/03/06 06:32:52;;;;;;;;;;;;;;;3.92;40.95;100932.84;1742931;81;20188;-89
2022/03/06 06:35:17;;;;;;;;;;;;;;;4.01;40.88;100922.30;1738167;81;21969;-89
2022/03/06 06:37:43;;;;;;;;;;;;;;;3.83;40.81;100937.32;1740203;81;20129;-88
2022/03/06 06:40:09;;;;;;;;;;;;;;;3.71;40.53;100930.22;1747195;81;20154;-91
2022/03/06 06:42:34;;;;;;;;;;;;;;;3.85;40.44;100937.23;1745754;80;20173;-89
2022/03/06 06:45:00;;;;;;;;;;;;;;;4.06;39.84;100925.45;1743420;80;20098;-88
2022/03/06 06:47:26;;;;;;;;;;;;;;;4.01;39.56;100931.89;1749304;81;21015;-86
2022/03/06 06:49:51;;;;;;;;;;;;;;;4.08;39.76;100927.98;1750608;80;20117;-89
2022/03/06 06:52:17;;;;;;;;;;;;;;;4.12;39.74;100932.09;1744286;80;20178;-88
2022/03/06 06:54:42;;;;;;;;;;;;;;;4.15;39.82;100931.91;1744095;80;20559;-90
2022/03/06 06:57:08;;;;;;;;;;;;;;;3.71;39.87;100933.70;1751986;80;20128;-83
2022/03/06 06:59:34;;;;;;;;;;;;;;;3.80;39.70;100929.67;1748687;81;21120;-89
2022/03/06 07:01:59;;;;;;;;;;;;;;;3.93;39.63;100929.30;1755528;80;20181;-90
2022/03/06 07:04:25;;;;;;;;;;;;;;;4.13;39.50;100928.52;1745160;81;20683;-89
2022/03/06 07:06:50;;;;;;;;;;;;;;;4.04;39.56;100933.02;1742321;80;20473;-93
2022/03/06 07:09:16;;;;;;;;;;;;;;;3.92;39.87;100934.15;1746609;81;20752;-93
2022/03/06 07:11:41;;;;;;;;;;;;;;;4.19;39.49;100932.06;1748120;81;21887;-91
2022/03/06 07:14:07;;;;;;;;;;;;;;;4.24;39.33;100928.72;1747059;80;20150;-89
2022/03/06 07:16:32;;;;;;;;;;;;;;;4.24;39.39;100927.41;1742688;80;20158;-89
2022/03/06 07:18:59;;;;;;;;;;;;;;;4.18;39.52;100929.09;1745972;80;20182;-89
2022/03/06 07:21:24;;;;;;;;;;;;;;;4.44;39.23;100925.30;1746654;81;20584;-93
2022/03/06 07:23:50;;;;;;;;;;;;;;;4.39;39.22;100930.81;1743861;81;21168;-89
2022/03/06 07:26:17;;;;;;;;;;;;;;;4.50;39.30;100926.22;1748641;81;20128;-88
2022/03/06 07:28:43;;;;;;;;;;;;;;;4.52;39.31;100926.12;1751574;81;20128;-91
2022/03/06 07:31:09;;;;;;;;;;;;;;;4.43;39.44;100923.64;1750505;81;20188;-88
2022/03/06 07:33:35;;;;;;;;;;;;;;;4.35;39.04;100932.41;1744669;80;20822;-87
2022/03/06 07:36:01;;;;;;;;;;;;;;;4.52;38.93;100926.95;1743472;80;21098;-91
2022/03/06 07:38:26;;;;;;;;;;;;;;;4.28;39.03;100924.95;1743392;81;20624;-87
2022/03/06 07:40:52;;;;;;;;;;;;;;;4.13;38.96;100931.14;1750174;81;20168;-94
2022/03/06 07:43:17;;;;;;;;;;;;;;;4.13;39.09;100929.83;1739974;80;20158;-92
2022/03/06 07:45:43;;;;;;;;;;;;;;;4.29;39.12;100928.43;1744670;80;20129;-88
2022/03/06 07:48:08;;;;;;;;;;;;;;;4.07;39.42;100932.83;1744008;81;21144;-84
2022/03/06 07:50:34;;;;;;;;;;;;;;;3.83;39.72;100926.88;1738867;80;20147;-88
2022/03/06 07:52:59;;;;;;;;;;;;;;;3.92;39.74;100925.00;1743927;80;20196;-86
2022/03/06 07:55:25;;;;;;;;;;;;;;;3.89;39.84;100927.80;1712888;82;20136;-90
2022/03/06 07:57:51;;;;;;;;;;;;;;;3.64;40.07;100931.55;1701228;83;20195;-88
2022/03/06 08:00:17;;;;;;;;;;;;;;;3.73;40.23;100927.08;1692215;83;21183;-86
2022/03/06 08:02:42;;;;;;;;;;;;;;;4.01;39.83;100934.51;1679660;83;20271;-93
2022/03/06 08:05:08;;;;;;;;;;;;;;;4.09;39.48;100934.90;1692495;83;20168;-92
2022/03/06 08:07:34;;;;;;;;;;;;;;;4.03;39.46;100932.66;1684948;83;21380;-95
2022/03/06 08:10:00;;;;;;;;;;;;;;;3.90;39.81;100930.80;1686593;83;20252;-91
2022/03/06 08:12:26;;;;;;;;;;;;;;;3.95;40.01;100930.04;1691558;83;21161;-83
2022/03/06 08:14:53;;;;;;;;;;;;;;;3.69;40.21;100932.93;1696061;83;20137;-89
2022/03/06 08:17:19;;;;;;;;;;;;;;;3.85;39.92;100926.30;1683571;83;20218;-90
2022/03/06 08:19:45;;;;;;;;;;;;;;;3.95;40.02;100928.73;1687078;83;20724;-86
2022/03/06 08:22:11;;;;;;;;;;;;;;;3.93;40.11;100934.98;1690307;83;20389;-89
2022/03/06 08:24:36;;;;;;;;;;;;;;;3.98;39.83;100939.92;1687831;83;21095;-90
2022/03/06 08:27:02;;;;;;;;;;;;;;;4.06;39.67;100936.39;1685319;83;20323;-91
2022/03/06 08:29:28;;;;;;;;;;;;;;;4.17;39.58;100936.56;1689671;83;20185;-91
2022/03/06 08:31:53;;;;;;;;;;;;;;;4.22;39.60;100937.58;1683393;83;20228;-89
2022/03/06 08:34:19;;;;;;;;;;;;;;;4.41;39.25;100933.34;1664557;83;20091;-94
2022/03/06 08:36:44;;;;;;;;;;;;;;;4.38;39.06;100929.61;1684690;83;20981;-86
2022/03/06 08:39:10;;;;;;;;;;;;;;;4.25;39.67;100940.00;1685039;83;20701;-87
2022/03/06 08:41:36;;;;;;;;;;;;;;;4.27;39.82;100938.98;1688785;83;20187;-85
2022/03/06 08:44:01;;;;;;;;;;;;;;;4.25;40.11;100940.83;1723665;80;20160;-96
2022/03/06 08:46:27;;;;;;;;;;;;;;;3.66;40.83;100936.20;1740267;81;20172;-89
2022/03/06 08:48:52;;;;;;;;;;;;;;;3.98;40.71;100933.39;1735821;81;21156;-88
2022/03/06 08:51:18;;;;;;;;;;;;;;;4.10;40.39;100933.94;1746205;81;20879;-85
2022/03/06 08:53:44;;;;;;;;;;;;;;;4.00;40.46;100934.16;1741973;80;20170;-88
2022/03/06 08:56:09;;;;;;;;;;;;;;;3.89;40.47;100930.41;1750680;81;20111;-86
2022/03/06 08:58:35;;;;;;;;;;;;;;;3.89;40.39;100930.89;1737993;81;20170;-92
2022/03/06 09:01:00;;;;;;;;;;;;;;;3.75;40.64;100938.26;1737460;81;21391;-88
2022/03/06 09:03:26;;;;;;;;;;;;;;;3.62;40.90;100941.22;1742713;80;20238;-92
2022/03/06 09:05:52;;;;;;;;;;;;;;;3.86;40.38;100935.83;1744592;80;20162;-93
2022/03/06 09:08:19;;;;;;;;;;;;;;;4.00;40.09;100934.98;1742799;81;20196;-90
2022/03/06 09:10:46;;;;;;;;;;;;;;;4.31;39.79;100926.55;1749692;80;20182;-87
2022/03/06 09:13:11;;;;;;;;;;;;;;;4.51;39.56;100920.06;1770604;79;21994;-85
2022/03/06 09:15:37;;;;;;;;;;;;;;;4.58;39.45;100921.33;1730127;82;20150;-93
2022/03/06 09:18:04;;;;;;;;;;;;;;;4.59;39.81;100922.19;1724681;82;20150;-89
2022/03/06 09:20:29;;;;;;;;;;;;;;;4.58;39.40;100931.78;1721893;82;20211;-86
2022/03/06 09:22:55;;;;;;;;;;;;;;;4.65;39.61;100925.23;1727056;81;20190;-84
2022/03/06 09:25:21;;;;;;;;;;;;;;;4.63;39.39;100924.50;1725244;82;21196;-87
2022/03/06 09:27:46;;;;;;;;;;;;;;;4.53;39.53;100927.33;1724423;81;20197;-84
2022/03/06 09:30:12;;;;;;;;;;;;;;;4.36;39.79;100927.09;1723082;82;20146;-89
2022/03/06 09:32:38;;;;;;;;;;;;;;;4.52;39.46;100917.79;1727823;82;20143;-87
2022/03/06 09:35:04;;;;;;;;;;;;;;;4.57;39.79;100917.05;1727326;81;20190;-86
2022/03/06 09:37:30;;;;;;;;;;;;;;;4.44;39.99;100909.61;1731653;81;21292;-87
2022/03/06 09:39:56;;;;;;;;;;;;;;;4.33;40.02;100912.91;1726399;81;20289;-90
2022/03/06 09:42:22;;;;;;;;;;;;;;;4.28;40.14;100917.11;1723870;81;20581;-88
2022/03/06 09:44:47;;;;;;;;;;;;;;;4.42;40.13;100904.47;1727597;82;20186;-85
2022/03/06 09:47:13;;;;;;;;;;;;;;;4.54;39.99;100906.78;1724595;82;20186;-87
2022/03/06 09:49:40;;;;;;;;;;;;;;;4.53;39.91;100908.19;1719823;82;21334;-88
2022/03/06 09:52:06;;;;;;;;;;;;;;;4.49;39.88;100911.48;1723143;82;20223;-90
2022/03/06 09:54:31;;;;;;;;;;;;;;;4.36;40.17;100907.95;1718783;82;20213;-87
2022/03/06 09:56:57;;;;;;;;;;;;;;;4.35;40.37;100911.49;1726148;81;20127;-93
2022/03/06 09:59:23;;;;;;;;;;;;;;;4.55;40.17;100899.28;1727771;82;20197;-87
2022/03/06 10:01:49;;;;;;;;;;;;;;;4.53;40.03;100901.66;1723439;82;21163;-88
2022/03/06 10:04:30;;;;;;;;;;;;;;;4.39;40.08;100907.77;1725208;82;20118;-85
2022/03/06 10:07:02;;;;;;;;;;;;;;;4.25;40.27;100908.16;1719690;82;20265;-87
2022/03/06 10:09:28;;;;;;;;;;;;;;;4.55;39.95;100899.28;1720436;82;20751;-87
2022/03/06 10:11:54;;;;;;;;;;;;;;;4.84;39.83;100901.80;1720045;82;20284;-87
2022/03/06 10:14:38;;;;;;;;;;;;;;;4.92;39.51;100894.28;1717074;82;21184;-88
2022/03/06 10:17:08;;;;;;;;;;;;;;;5.03;39.60;100899.66;1723307;82;20138;-85
2022/03/06 10:19:57;;;;;;;;;;;;;;;4.97;39.50;100900.06;1724429;82;20127;-89
2022/03/06 10:22:27;;;;;;;;;;;;;;;4.78;39.44;100896.97;1720882;82;20179;-88
2022/03/06 10:25:09;;;;;;;;;;;;;;;4.89;39.56;100890.55;1725676;82;20179;-90
2022/03/06 10:27:47;;;;;;;;;;;;;;;4.75;39.23;100897.17;1724830;82;21081;-87
2022/03/06 10:30:37;;;;;;;;;;;;;;;4.60;39.49;100897.23;1724480;82;20127;-90
2022/03/06 10:33:10;;;;;;;;;;;;;;;4.84;39.33;100887.41;1718158;82;20243;-89
2022/03/06 10:35:37;;;;;;;;;;;;;;;4.66;39.14;100892.91;1724578;81;20180;-87
2022/03/06 10:38:28;;;;;;;;;;;;;;;4.51;39.87;100887.36;1724526;81;20144;-89
2022/03/06 10:40:56;;;;;;;;;;;;;;;4.86;39.18;100880.28;1723959;81;21134;-87
2022/03/06 10:43:33;;;;;;;;;;;;;;;5.06;39.12;100876.83;1721438;82;20669;-88
2022/03/06 10:46:13;;;;;;;;;;;;;;;5.34;38.66;100874.01;1724641;82;20087;-87
2022/03/06 10:48:40;;;;;;;;;;;;;;;5.51;38.05;100870.72;1730075;82;20188;-84
2022/03/06 10:51:11;;;;;;;;;;;;;;;5.31;38.11;100863.75;1737974;80;20163;-89
2022/03/06 10:53:37;;;;;;;;;;;;;;;5.08;38.69;100868.39;1734958;82;21138;-87
2022/03/06 10:56:12;;;;;;;;;;;;;;;5.20;37.99;100865.81;1732619;82;38450;-86
2022/03/06 10:58:43;;;;;;;;;;;;;;;5.38;38.18;100859.77;1720088;82;20526;-89
2022/03/06 11:01:08;;;;;;;;;;;;;;;5.57;37.76;100855.89;1735636;81;20481;-84
2022/03/06 11:03:35;;;;;;;;;;;;;;;5.58;37.54;100856.27;1731401;81;20154;-88
2022/03/06 11:06:03;;;;;;;;;;;;;;;5.77;37.45;100851.05;1734649;81;21146;-89
2022/03/06 11:08:28;;;;;;;;;;;;;;;5.73;37.06;100851.72;1731878;80;20197;-86
2022/03/06 11:10:54;;;;;;;;;;;;;;;6.00;37.44;100843.73;1736412;80;20178;-88
2022/03/06 11:13:20;;;;;;;;;;;;;;;6.28;37.16;100848.31;1740847;80;20455;-88
2022/03/06 11:15:45;;;;;;;;;;;;;;;6.25;37.81;100841.98;1735873;82;20187;-89
2022/03/06 11:18:11;;;;;;;;;;;;;;;6.20;37.01;100836.20;1742512;81;21985;-88
2022/03/06 11:20:37;;;;;;;;;;;;;;;6.17;36.88;100839.05;1737588;81;20135;-88
2022/03/06 11:23:23;;;;;;;;;;;;;;;6.08;36.67;100838.77;1733297;80;20190;-87
2022/03/06 11:25:53;;;;;;;;;;;;;;;6.02;36.67;100836.59;1732134;82;20283;-91
2022/03/06 11:28:39;;;;;;;;;;;;;;;6.04;37.17;100834.69;1734275;82;20232;-85
2022/03/06 11:31:04;;;;;;;;;;;;;;;5.92;37.37;100827.21;1730584;81;21178;-87
2022/03/06 11:33:30;;;;;;;;;;;;;;;6.00;37.58;100821.45;1734237;82;20258;-85
2022/03/06 11:35:56;;;;;;;;;;;;;;;6.07;37.24;100825.29;1737881;82;20119;-85
2022/03/06 11:38:22;;;;;;;;;;;;;;;6.21;37.07;100814.29;1737958;81;20436;-86
2022/03/06 11:40:52;;;;;;;;;;;;;;;5.96;37.18;100817.33;1734752;82;20181;-87
2022/03/06 11:43:35;;;;;;;;;;;;;;;5.96;36.87;100809.95;1734678;80;21267;-89
2022/03/06 11:46:08;;;;;;;;;;;;;;;5.82;37.43;100818.80;1749079;80;20133;-86
2022/03/06 11:48:38;;;;;;;;;;;;;;;5.86;37.25;100817.64;1730792;81;20176;-84
2022/03/06 11:51:22;;;;;;;;;;;;;;;5.93;37.20;100813.63;1729696;81;20476;-87
2022/03/06 11:53:56;;;;;;;;;;;;;;;5.85;37.27;100803.68;1732844;82;20202;-88
2022/03/06 11:56:45;;;;;;;;;;;;;;;6.03;37.18;100801.57;1729809;81;21184;-87
2022/03/06 11:59:25;;;;;;;;;;;;;;;5.91;37.21;100802.42;1741144;80;20106;-87
2022/03/06 12:01:53;;;;;;;;;;;;;;;5.86;36.94;100786.19;1744976;81;20246;-83
2022/03/06 12:04:24;;;;;;;;;;;;;;;6.08;36.67;100783.71;1733116;81;20536;-87
2022/03/06 12:06:54;;;;;;;;;;;;;;;6.46;36.13;100776.14;1733963;80;20179;-88
2022/03/06 12:09:24;;;;;;;;;;;;;;;6.65;36.05;100768.20;1721912;81;20860;-87
2022/03/06 12:11:52;;;;;;;;;;;;;;;6.69;36.35;100761.75;1714345;81;20185;-87
2022/03/06 12:14:23;;;;;;;;;;;;;;;6.86;36.08;100758.34;1745338;81;20175;-86
2022/03/06 12:17:06;;;;;;;;;;;;;;;6.69;35.72;100756.50;1747862;80;20167;-85
2022/03/06 12:19:46;;;;;;;;;;;;;;;6.60;36.07;100754.11;1735021;81;20165;-86
2022/03/06 12:22:29;;;;;;;;;;;;;;;6.88;36.34;100753.80;1726771;80;21128;-85
2022/03/06 12:25:10;;;;;;;;;;;;;;;6.89;36.11;100751.54;1734314;81;20496;-87
2022/03/06 12:27:44;;;;;;;;;;;;;;;6.93;37.07;100750.33;1734911;81;20360;-85
2022/03/06 12:30:12;;;;;;;;;;;;;;;7.10;36.06;100747.27;1736700;82;20143;-86
2022/03/06 12:32:39;;;;;;;;;;;;;;;7.04;35.87;100746.42;1738447;80;20143;-88
2022/03/06 12:35:11;;;;;;;;;;;;;;;6.92;35.80;100748.67;1744749;80;20985;-86
2022/03/06 12:37:51;;;;;;;;;;;;;;;6.74;36.24;100743.89;1747214;81;20218;-86
2022/03/06 12:40:18;;;;;;;;;;;;;;;6.57;36.47;100749.55;1741624;81;20132;-87
2022/03/06 12:42:44;;;;;;;;;;;;;;;6.69;36.34;100740.75;1726986;82;20236;-87
2022/03/06 12:45:12;;;;;;;;;;;;;;;6.80;36.54;100736.83;1726125;82;20213;-88
2022/03/06 12:47:38;;;;;;;;;;;;;;;6.21;37.26;100738.23;1729299;82;21931;-88